sensor_id;sensor_type;location;lat;lon;timestamp;P1;durP1;ratioP1;P2;durP2;ratioP2
7213;SDS011;3648;50.614;13.830;2023-09-18T00:00:23;3.47;;;3.17;;
7213;SDS011;3648;50.614;13.830;2023-09-18T00:02:50;3.20;;;2.90;;
7213;SDS011;3648;50.614;13.830;2023-09-18T00:05:17;4.37;;;3.47;;
7213;SDS011;3648;50.614;13.830;2023-09-18T00:07:44;3.93;;;3.20;;
7213;SDS011;3648;50.614;13.830;2023-09-18T00:10:12;3.60;;;3.30;;
7213;SDS011;3648;50.614;13.830;2023-09-18T00:12:40;3.27;;;3.03;;
7213;SDS011;3648;50.614;13.830;2023-09-18T00:15:07;4.23;;;3.40;;
7213;SDS011;3648;50.614;13.830;2023-09-18T00:17:35;3.80;;;3.10;;
7213;SDS011;3648;50.614;13.830;2023-09-18T00:20:02;4.10;;;3.37;;
7213;SDS011;3648;50.614;13.830;2023-09-18T00:22:31;3.40;;;3.10;;
7213;SDS011;3648;50.614;13.830;2023-09-18T00:24:59;3.67;;;3.07;;
7213;SDS011;3648;50.614;13.830;2023-09-18T00:27:26;3.43;;;3.13;;
7213;SDS011;3648;50.614;13.830;2023-09-18T00:29:55;3.70;;;3.40;;
7213;SDS011;3648;50.614;13.830;2023-09-18T00:32:22;3.83;;;3.43;;
7213;SDS011;3648;50.614;13.830;2023-09-18T00:34:49;3.53;;;3.23;;
7213;SDS011;3648;50.614;13.830;2023-09-18T00:37:16;3.67;;;3.37;;
7213;SDS011;3648;50.614;13.830;2023-09-18T00:39:43;3.60;;;3.30;;
7213;SDS011;3648;50.614;13.830;2023-09-18T00:42:10;3.97;;;3.37;;
7213;SDS011;3648;50.614;13.830;2023-09-18T00:44:38;3.90;;;3.53;;
7213;SDS011;3648;50.614;13.830;2023-09-18T00:47:08;4.17;;;3.50;;
7213;SDS011;3648;50.614;13.830;2023-09-18T00:49:35;3.73;;;3.33;;
7213;SDS011;3648;50.614;13.830;2023-09-18T00:52:03;3.63;;;3.30;;
7213;SDS011;3648;50.614;13.830;2023-09-18T00:54:32;3.93;;;3.53;;
7213;SDS011;3648;50.614;13.830;2023-09-18T00:57:00;4.10;;;3.70;;
7213;SDS011;3648;50.614;13.830;2023-09-18T00:59:28;3.50;;;3.20;;
7213;SDS011;3648;50.614;13.830;2023-09-18T01:01:56;4.30;;;3.90;;
7213;SDS011;3648;50.614;13.830;2023-09-18T01:04:24;3.60;;;3.30;;
7213;SDS011;3648;50.614;13.830;2023-09-18T01:06:53;4.17;;;3.73;;
7213;SDS011;3648;50.614;13.830;2023-09-18T01:09:21;3.97;;;3.30;;
7213;SDS011;3648;50.614;13.830;2023-09-18T01:11:50;4.13;;;3.73;;
7213;SDS011;3648;50.614;13.830;2023-09-18T01:14:25;3.70;;;3.40;;
7213;SDS011;3648;50.614;13.830;2023-09-18T01:16:58;4.63;;;3.63;;
7213;SDS011;3648;50.614;13.830;2023-09-18T01:19:38;5.33;;;3.80;;
7213;SDS011;3648;50.614;13.830;2023-09-18T01:22:06;4.17;;;3.77;;
7213;SDS011;3648;50.614;13.830;2023-09-18T01:24:36;6.27;;;4.03;;
7213;SDS011;3648;50.614;13.830;2023-09-18T01:27:05;3.87;;;3.57;;
7213;SDS011;3648;50.614;13.830;2023-09-18T01:29:34;3.63;;;3.33;;
7213;SDS011;3648;50.614;13.830;2023-09-18T01:32:01;3.97;;;3.50;;
7213;SDS011;3648;50.614;13.830;2023-09-18T01:34:28;4.83;;;4.03;;
7213;SDS011;3648;50.614;13.830;2023-09-18T01:36:58;4.13;;;3.73;;
7213;SDS011;3648;50.614;13.830;2023-09-18T01:39:27;4.17;;;3.77;;
7213;SDS011;3648;50.614;13.830;2023-09-18T01:41:58;3.93;;;3.53;;
7213;SDS011;3648;50.614;13.830;2023-09-18T01:44:26;3.90;;;3.50;;
7213;SDS011;3648;50.614;13.830;2023-09-18T01:46:53;4.10;;;3.80;;
7213;SDS011;3648;50.614;13.830;2023-09-18T01:49:28;4.57;;;3.80;;
7213;SDS011;3648;50.614;13.830;2023-09-18T01:51:56;4.80;;;4.30;;
7213;SDS011;3648;50.614;13.830;2023-09-18T01:54:23;4.60;;;4.20;;
7213;SDS011;3648;50.614;13.830;2023-09-18T01:56:51;4.83;;;4.00;;
7213;SDS011;3648;50.614;13.830;2023-09-18T01:59:19;4.37;;;3.97;;
7213;SDS011;3648;50.614;13.830;2023-09-18T02:01:47;4.67;;;4.23;;
7213;SDS011;3648;50.614;13.830;2023-09-18T02:04:14;5.50;;;4.20;;
7213;SDS011;3648;50.614;13.830;2023-09-18T02:06:40;4.30;;;3.90;;
7213;SDS011;3648;50.614;13.830;2023-09-18T02:09:07;4.60;;;4.17;;
7213;SDS011;3648;50.614;13.830;2023-09-18T02:11:35;4.13;;;3.73;;
7213;SDS011;3648;50.614;13.830;2023-09-18T02:14:03;4.67;;;4.27;;
7213;SDS011;3648;50.614;13.830;2023-09-18T02:16:32;4.93;;;4.43;;
7213;SDS011;3648;50.614;13.830;2023-09-18T02:18:59;5.30;;;4.57;;
7213;SDS011;3648;50.614;13.830;2023-09-18T02:21:26;4.87;;;4.40;;
7213;SDS011;3648;50.614;13.830;2023-09-18T02:23:53;5.83;;;3.83;;
7213;SDS011;3648;50.614;13.830;2023-09-18T02:26:21;6.50;;;3.93;;
7213;SDS011;3648;50.614;13.830;2023-09-18T02:28:51;4.20;;;3.80;;
7213;SDS011;3648;50.614;13.830;2023-09-18T02:31:18;4.03;;;3.63;;
7213;SDS011;3648;50.614;13.830;2023-09-18T02:33:47;4.57;;;3.97;;
7213;SDS011;3648;50.614;13.830;2023-09-18T02:36:14;5.23;;;4.20;;
7213;SDS011;3648;50.614;13.830;2023-09-18T02:38:41;5.07;;;4.67;;
7213;SDS011;3648;50.614;13.830;2023-09-18T02:41:08;4.60;;;4.20;;
7213;SDS011;3648;50.614;13.830;2023-09-18T02:43:35;5.80;;;3.97;;
7213;SDS011;3648;50.614;13.830;2023-09-18T02:46:03;4.60;;;4.20;;
7213;SDS011;3648;50.614;13.830;2023-09-18T02:48:30;4.57;;;4.17;;
7213;SDS011;3648;50.614;13.830;2023-09-18T02:50:59;4.43;;;3.97;;
7213;SDS011;3648;50.614;13.830;2023-09-18T02:53:27;4.47;;;4.07;;
7213;SDS011;3648;50.614;13.830;2023-09-18T02:55:55;4.47;;;4.07;;
7213;SDS011;3648;50.614;13.830;2023-09-18T02:58:23;5.03;;;4.33;;
7213;SDS011;3648;50.614;13.830;2023-09-18T03:00:51;5.30;;;4.80;;
7213;SDS011;3648;50.614;13.830;2023-09-18T03:03:19;4.53;;;4.13;;
7213;SDS011;3648;50.614;13.830;2023-09-18T03:05:46;4.90;;;4.40;;
7213;SDS011;3648;50.614;13.830;2023-09-18T03:08:14;4.93;;;4.30;;
7213;SDS011;3648;50.614;13.830;2023-09-18T03:10:42;4.87;;;4.47;;
7213;SDS011;3648;50.614;13.830;2023-09-18T03:13:10;4.90;;;4.50;;
7213;SDS011;3648;50.614;13.830;2023-09-18T03:15:38;4.67;;;4.27;;
7213;SDS011;3648;50.614;13.830;2023-09-18T03:18:05;5.07;;;4.47;;
7213;SDS011;3648;50.614;13.830;2023-09-18T03:20:33;5.63;;;4.87;;
7213;SDS011;3648;50.614;13.830;2023-09-18T03:23:01;6.10;;;4.93;;
7213;SDS011;3648;50.614;13.830;2023-09-18T03:25:30;5.47;;;4.97;;
7213;SDS011;3648;50.614;13.830;2023-09-18T03:27:57;4.77;;;4.37;;
7213;SDS011;3648;50.614;13.830;2023-09-18T03:30:24;4.93;;;4.53;;
7213;SDS011;3648;50.614;13.830;2023-09-18T03:32:52;5.03;;;4.60;;
7213;SDS011;3648;50.614;13.830;2023-09-18T03:35:20;5.10;;;4.60;;
7213;SDS011;3648;50.614;13.830;2023-09-18T03:37:47;5.03;;;4.53;;
7213;SDS011;3648;50.614;13.830;2023-09-18T03:40:15;4.93;;;4.53;;
7213;SDS011;3648;50.614;13.830;2023-09-18T03:42:44;5.60;;;4.97;;
7213;SDS011;3648;50.614;13.830;2023-09-18T03:45:11;4.50;;;4.10;;
7213;SDS011;3648;50.614;13.830;2023-09-18T03:47:38;4.93;;;4.53;;
7213;SDS011;3648;50.614;13.830;2023-09-18T03:50:07;5.57;;;4.33;;
7213;SDS011;3648;50.614;13.830;2023-09-18T03:52:34;4.70;;;4.30;;
7213;SDS011;3648;50.614;13.830;2023-09-18T03:55:01;5.00;;;4.50;;
7213;SDS011;3648;50.614;13.830;2023-09-18T03:57:29;4.87;;;4.47;;
7213;SDS011;3648;50.614;13.830;2023-09-18T03:59:57;5.20;;;4.70;;
7213;SDS011;3648;50.614;13.830;2023-09-18T04:02:24;5.43;;;4.97;;
7213;SDS011;3648;50.614;13.830;2023-09-18T04:04:53;5.30;;;4.80;;
7213;SDS011;3648;50.614;13.830;2023-09-18T04:07:20;4.77;;;4.27;;
7213;SDS011;3648;50.614;13.830;2023-09-18T04:09:47;5.63;;;5.13;;
7213;SDS011;3648;50.614;13.830;2023-09-18T04:12:14;5.70;;;5.03;;
7213;SDS011;3648;50.614;13.830;2023-09-18T04:14:41;5.13;;;4.63;;
7213;SDS011;3648;50.614;13.830;2023-09-18T04:17:10;5.43;;;4.93;;
7213;SDS011;3648;50.614;13.830;2023-09-18T04:19:37;5.23;;;4.73;;
7213;SDS011;3648;50.614;13.830;2023-09-18T04:22:04;4.90;;;4.40;;
7213;SDS011;3648;50.614;13.830;2023-09-18T04:24:31;6.03;;;4.70;;
7213;SDS011;3648;50.614;13.830;2023-09-18T04:26:58;5.77;;;5.17;;
7213;SDS011;3648;50.614;13.830;2023-09-18T04:29:25;4.93;;;4.53;;
7213;SDS011;3648;50.614;13.830;2023-09-18T04:31:52;6.20;;;4.90;;
7213;SDS011;3648;50.614;13.830;2023-09-18T04:34:21;5.03;;;4.53;;
7213;SDS011;3648;50.614;13.830;2023-09-18T04:36:48;5.13;;;4.73;;
7213;SDS011;3648;50.614;13.830;2023-09-18T04:39:15;5.57;;;5.07;;
7213;SDS011;3648;50.614;13.830;2023-09-18T04:41:42;4.77;;;4.37;;
7213;SDS011;3648;50.614;13.830;2023-09-18T04:44:10;5.33;;;4.83;;
7213;SDS011;3648;50.614;13.830;2023-09-18T04:46:40;5.37;;;4.77;;
7213;SDS011;3648;50.614;13.830;2023-09-18T04:49:09;4.53;;;4.13;;
7213;SDS011;3648;50.614;13.830;2023-09-18T04:51:38;4.93;;;4.47;;
7213;SDS011;3648;50.614;13.830;2023-09-18T04:54:09;5.63;;;4.77;;
7213;SDS011;3648;50.614;13.830;2023-09-18T04:56:36;6.63;;;5.37;;
7213;SDS011;3648;50.614;13.830;2023-09-18T04:59:03;5.03;;;4.57;;
7213;SDS011;3648;50.614;13.830;2023-09-18T05:01:30;5.70;;;5.10;;
7213;SDS011;3648;50.614;13.830;2023-09-18T05:03:57;4.80;;;4.30;;
7213;SDS011;3648;50.614;13.830;2023-09-18T05:06:28;6.33;;;5.37;;
7213;SDS011;3648;50.614;13.830;2023-09-18T05:08:56;5.50;;;4.97;;
7213;SDS011;3648;50.614;13.830;2023-09-18T05:11:23;5.77;;;5.00;;
7213;SDS011;3648;50.614;13.830;2023-09-18T05:13:51;5.50;;;5.00;;
7213;SDS011;3648;50.614;13.830;2023-09-18T05:16:18;5.83;;;5.20;;
7213;SDS011;3648;50.614;13.830;2023-09-18T05:18:45;5.80;;;4.90;;
7213;SDS011;3648;50.614;13.830;2023-09-18T05:21:12;6.83;;;5.23;;
7213;SDS011;3648;50.614;13.830;2023-09-18T05:23:39;5.10;;;4.70;;
7213;SDS011;3648;50.614;13.830;2023-09-18T05:26:08;5.13;;;4.63;;
7213;SDS011;3648;50.614;13.830;2023-09-18T05:28:36;6.00;;;5.40;;
7213;SDS011;3648;50.614;13.830;2023-09-18T05:31:03;5.90;;;5.00;;
7213;SDS011;3648;50.614;13.830;2023-09-18T05:33:30;5.77;;;5.27;;
7213;SDS011;3648;50.614;13.830;2023-09-18T05:35:57;5.50;;;5.00;;
7213;SDS011;3648;50.614;13.830;2023-09-18T05:38:24;6.50;;;5.47;;
7213;SDS011;3648;50.614;13.830;2023-09-18T05:40:51;7.47;;;5.47;;
7213;SDS011;3648;50.614;13.830;2023-09-18T05:43:19;6.47;;;5.87;;
7213;SDS011;3648;50.614;13.830;2023-09-18T05:45:46;6.10;;;5.50;;
7213;SDS011;3648;50.614;13.830;2023-09-18T05:48:14;6.23;;;5.63;;
7213;SDS011;3648;50.614;13.830;2023-09-18T05:50:41;6.40;;;5.40;;
7213;SDS011;3648;50.614;13.830;2023-09-18T05:53:08;6.10;;;5.50;;
7213;SDS011;3648;50.614;13.830;2023-09-18T05:55:36;6.00;;;5.40;;
7213;SDS011;3648;50.614;13.830;2023-09-18T05:58:03;5.50;;;5.00;;
7213;SDS011;3648;50.614;13.830;2023-09-18T06:00:33;6.60;;;6.00;;
7213;SDS011;3648;50.614;13.830;2023-09-18T06:03:01;6.47;;;5.87;;
7213;SDS011;3648;50.614;13.830;2023-09-18T06:05:30;6.53;;;5.93;;
7213;SDS011;3648;50.614;13.830;2023-09-18T06:07:59;7.53;;;6.33;;
7213;SDS011;3648;50.614;13.830;2023-09-18T06:10:26;7.43;;;5.67;;
7213;SDS011;3648;50.614;13.830;2023-09-18T06:12:53;6.23;;;5.73;;
7213;SDS011;3648;50.614;13.830;2023-09-18T06:15:20;6.33;;;5.73;;
7213;SDS011;3648;50.614;13.830;2023-09-18T06:17:48;5.80;;;5.27;;
7213;SDS011;3648;50.614;13.830;2023-09-18T06:20:15;6.37;;;5.77;;
7213;SDS011;3648;50.614;13.830;2023-09-18T06:22:42;6.90;;;6.30;;
7213;SDS011;3648;50.614;13.830;2023-09-18T06:25:09;6.73;;;6.13;;
7213;SDS011;3648;50.614;13.830;2023-09-18T06:27:37;6.67;;;6.07;;
7213;SDS011;3648;50.614;13.830;2023-09-18T06:30:04;5.93;;;5.43;;
7213;SDS011;3648;50.614;13.830;2023-09-18T06:32:32;7.40;;;6.47;;
7213;SDS011;3648;50.614;13.830;2023-09-18T06:35:01;6.93;;;6.33;;
7213;SDS011;3648;50.614;13.830;2023-09-18T06:37:28;6.80;;;6.10;;
7213;SDS011;3648;50.614;13.830;2023-09-18T06:39:55;8.93;;;5.87;;
7213;SDS011;3648;50.614;13.830;2023-09-18T06:42:22;7.50;;;6.77;;
7213;SDS011;3648;50.614;13.830;2023-09-18T06:44:49;6.57;;;5.97;;
7213;SDS011;3648;50.614;13.830;2023-09-18T06:47:18;6.77;;;6.07;;
7213;SDS011;3648;50.614;13.830;2023-09-18T06:49:45;6.93;;;6.23;;
7213;SDS011;3648;50.614;13.830;2023-09-18T06:52:13;6.70;;;6.03;;
7213;SDS011;3648;50.614;13.830;2023-09-18T06:54:41;6.03;;;5.53;;
7213;SDS011;3648;50.614;13.830;2023-09-18T06:57:09;9.43;;;7.10;;
7213;SDS011;3648;50.614;13.830;2023-09-18T06:59:36;6.87;;;6.00;;
7213;SDS011;3648;50.614;13.830;2023-09-18T07:02:03;7.67;;;6.50;;
7213;SDS011;3648;50.614;13.830;2023-09-18T07:04:30;6.50;;;5.90;;
7213;SDS011;3648;50.614;13.830;2023-09-18T07:06:57;6.83;;;6.17;;
7213;SDS011;3648;50.614;13.830;2023-09-18T07:09:25;6.20;;;5.70;;
7213;SDS011;3648;50.614;13.830;2023-09-18T07:11:52;6.87;;;6.17;;
7213;SDS011;3648;50.614;13.830;2023-09-18T07:14:19;6.90;;;6.30;;
7213;SDS011;3648;50.614;13.830;2023-09-18T07:16:46;7.30;;;6.60;;
7213;SDS011;3648;50.614;13.830;2023-09-18T07:19:13;7.63;;;6.83;;
7213;SDS011;3648;50.614;13.830;2023-09-18T07:21:42;7.23;;;6.60;;
7213;SDS011;3648;50.614;13.830;2023-09-18T07:24:10;7.13;;;6.53;;
7213;SDS011;3648;50.614;13.830;2023-09-18T07:26:44;6.97;;;6.27;;
7213;SDS011;3648;50.614;13.830;2023-09-18T07:29:12;7.17;;;6.47;;
7213;SDS011;3648;50.614;13.830;2023-09-18T07:31:40;6.97;;;6.27;;
7213;SDS011;3648;50.614;13.830;2023-09-18T07:34:07;7.27;;;6.57;;
7213;SDS011;3648;50.614;13.830;2023-09-18T07:36:35;6.53;;;5.93;;
7213;SDS011;3648;50.614;13.830;2023-09-18T07:39:02;7.27;;;6.57;;
7213;SDS011;3648;50.614;13.830;2023-09-18T07:41:29;7.27;;;6.57;;
7213;SDS011;3648;50.614;13.830;2023-09-18T07:43:58;7.67;;;6.70;;
7213;SDS011;3648;50.614;13.830;2023-09-18T07:46:25;7.43;;;6.57;;
7213;SDS011;3648;50.614;13.830;2023-09-18T07:48:52;6.87;;;6.27;;
7213;SDS011;3648;50.614;13.830;2023-09-18T07:51:20;7.73;;;6.93;;
7213;SDS011;3648;50.614;13.830;2023-09-18T07:53:47;7.37;;;6.77;;
7213;SDS011;3648;50.614;13.830;2023-09-18T07:56:14;7.23;;;6.47;;
7213;SDS011;3648;50.614;13.830;2023-09-18T07:58:41;6.77;;;6.17;;
7213;SDS011;3648;50.614;13.830;2023-09-18T08:01:09;7.73;;;6.93;;
7213;SDS011;3648;50.614;13.830;2023-09-18T08:03:36;7.43;;;6.40;;
7213;SDS011;3648;50.614;13.830;2023-09-18T08:06:03;6.67;;;6.07;;
7213;SDS011;3648;50.614;13.830;2023-09-18T08:08:31;6.70;;;6.10;;
7213;SDS011;3648;50.614;13.830;2023-09-18T08:11:00;7.07;;;6.47;;
7213;SDS011;3648;50.614;13.830;2023-09-18T08:13:34;8.47;;;6.53;;
7213;SDS011;3648;50.614;13.830;2023-09-18T08:16:01;6.03;;;5.53;;
7213;SDS011;3648;50.614;13.830;2023-09-18T08:18:31;6.87;;;6.27;;
7213;SDS011;3648;50.614;13.830;2023-09-18T08:20:58;6.63;;;6.00;;
7213;SDS011;3648;50.614;13.830;2023-09-18T08:23:25;6.60;;;6.00;;
7213;SDS011;3648;50.614;13.830;2023-09-18T08:25:52;7.80;;;6.17;;
7213;SDS011;3648;50.614;13.830;2023-09-18T08:28:21;7.20;;;6.47;;
7213;SDS011;3648;50.614;13.830;2023-09-18T08:30:48;7.17;;;6.53;;
7213;SDS011;3648;50.614;13.830;2023-09-18T08:33:15;7.47;;;6.73;;
7213;SDS011;3648;50.614;13.830;2023-09-18T08:35:44;6.97;;;6.27;;
7213;SDS011;3648;50.614;13.830;2023-09-18T08:38:12;6.60;;;6.00;;
7213;SDS011;3648;50.614;13.830;2023-09-18T08:40:40;6.60;;;6.00;;
7213;SDS011;3648;50.614;13.830;2023-09-18T08:43:08;7.07;;;6.43;;
7213;SDS011;3648;50.614;13.830;2023-09-18T08:45:43;6.87;;;6.17;;
7213;SDS011;3648;50.614;13.830;2023-09-18T08:48:17;6.70;;;6.00;;
7213;SDS011;3648;50.614;13.830;2023-09-18T08:50:45;5.70;;;5.20;;
7213;SDS011;3648;50.614;13.830;2023-09-18T08:53:14;6.50;;;5.77;;
7213;SDS011;3648;50.614;13.830;2023-09-18T08:55:41;6.70;;;6.10;;
7213;SDS011;3648;50.614;13.830;2023-09-18T08:58:08;7.27;;;5.87;;
7213;SDS011;3648;50.614;13.830;2023-09-18T09:00:36;6.77;;;6.10;;
7213;SDS011;3648;50.614;13.830;2023-09-18T09:03:03;6.40;;;5.80;;
7213;SDS011;3648;50.614;13.830;2023-09-18T09:05:31;6.83;;;6.23;;
7213;SDS011;3648;50.614;13.830;2023-09-18T09:07:59;6.40;;;5.80;;
7213;SDS011;3648;50.614;13.830;2023-09-18T09:10:27;6.03;;;5.43;;
7213;SDS011;3648;50.614;13.830;2023-09-18T09:12:55;5.80;;;5.30;;
7213;SDS011;3648;50.614;13.830;2023-09-18T09:15:24;5.90;;;5.30;;
7213;SDS011;3648;50.614;13.830;2023-09-18T09:18:01;7.57;;;5.37;;
7213;SDS011;3648;50.614;13.830;2023-09-18T09:20:30;6.83;;;5.97;;
7213;SDS011;3648;50.614;13.830;2023-09-18T09:23:01;5.23;;;4.73;;
7213;SDS011;3648;50.614;13.830;2023-09-18T09:25:29;6.33;;;5.60;;
7213;SDS011;3648;50.614;13.830;2023-09-18T09:27:58;5.70;;;5.20;;
7213;SDS011;3648;50.614;13.830;2023-09-18T09:30:26;5.80;;;5.10;;
7213;SDS011;3648;50.614;13.830;2023-09-18T09:32:54;6.83;;;5.43;;
7213;SDS011;3648;50.614;13.830;2023-09-18T09:35:22;5.93;;;5.13;;
7213;SDS011;3648;50.614;13.830;2023-09-18T09:37:52;5.40;;;4.90;;
7213;SDS011;3648;50.614;13.830;2023-09-18T09:40:22;5.30;;;4.80;;
7213;SDS011;3648;50.614;13.830;2023-09-18T09:42:51;5.73;;;5.13;;
7213;SDS011;3648;50.614;13.830;2023-09-18T09:45:19;7.23;;;5.90;;
7213;SDS011;3648;50.614;13.830;2023-09-18T09:47:46;5.30;;;4.90;;
7213;SDS011;3648;50.614;13.830;2023-09-18T09:50:14;5.77;;;5.27;;
7213;SDS011;3648;50.614;13.830;2023-09-18T09:52:44;6.17;;;5.60;;
7213;SDS011;3648;50.614;13.830;2023-09-18T09:55:24;6.00;;;5.50;;
7213;SDS011;3648;50.614;13.830;2023-09-18T09:57:54;5.67;;;5.17;;
7213;SDS011;3648;50.614;13.830;2023-09-18T10:00:25;5.90;;;5.30;;
7213;SDS011;3648;50.614;13.830;2023-09-18T10:02:58;5.77;;;5.27;;
7213;SDS011;3648;50.614;13.830;2023-09-18T10:05:29;6.60;;;6.00;;
7213;SDS011;3648;50.614;13.830;2023-09-18T10:07:58;5.73;;;5.23;;
7213;SDS011;3648;50.614;13.830;2023-09-18T10:10:29;5.70;;;5.30;;
7213;SDS011;3648;50.614;13.830;2023-09-18T10:13:00;5.13;;;4.60;;
7213;SDS011;3648;50.614;13.830;2023-09-18T10:15:33;5.17;;;4.60;;
7213;SDS011;3648;50.614;13.830;2023-09-18T10:18:04;5.23;;;4.73;;
7213;SDS011;3648;50.614;13.830;2023-09-18T10:20:39;4.90;;;4.50;;
7213;SDS011;3648;50.614;13.830;2023-09-18T10:23:20;4.83;;;4.43;;
7213;SDS011;3648;50.614;13.830;2023-09-18T10:25:55;4.53;;;4.10;;
7213;SDS011;3648;50.614;13.830;2023-09-18T10:28:28;5.13;;;4.63;;
7213;SDS011;3648;50.614;13.830;2023-09-18T10:30:57;5.00;;;4.60;;
7213;SDS011;3648;50.614;13.830;2023-09-18T10:33:26;5.47;;;4.97;;
7213;SDS011;3648;50.614;13.830;2023-09-18T10:35:53;5.70;;;5.20;;
7213;SDS011;3648;50.614;13.830;2023-09-18T10:38:23;5.03;;;4.53;;
7213;SDS011;3648;50.614;13.830;2023-09-18T10:40:52;4.87;;;4.47;;
7213;SDS011;3648;50.614;13.830;2023-09-18T10:43:22;4.93;;;4.53;;
7213;SDS011;3648;50.614;13.830;2023-09-18T10:45:49;5.43;;;4.93;;
7213;SDS011;3648;50.614;13.830;2023-09-18T10:48:17;5.00;;;4.50;;
7213;SDS011;3648;50.614;13.830;2023-09-18T10:50:45;6.30;;;5.70;;
7213;SDS011;3648;50.614;13.830;2023-09-18T10:53:13;6.83;;;5.03;;
7213;SDS011;3648;50.614;13.830;2023-09-18T10:55:40;5.57;;;5.07;;
7213;SDS011;3648;50.614;13.830;2023-09-18T10:58:10;5.60;;;4.60;;
7213;SDS011;3648;50.614;13.830;2023-09-18T11:00:48;5.47;;;4.97;;
7213;SDS011;3648;50.614;13.830;2023-09-18T11:03:16;5.40;;;4.90;;
7213;SDS011;3648;50.614;13.830;2023-09-18T11:05:44;5.10;;;4.63;;
7213;SDS011;3648;50.614;13.830;2023-09-18T11:08:25;5.00;;;4.60;;
7213;SDS011;3648;50.614;13.830;2023-09-18T11:11:00;5.00;;;4.57;;
7213;SDS011;3648;50.614;13.830;2023-09-18T11:13:37;4.57;;;4.17;;
7213;SDS011;3648;50.614;13.830;2023-09-18T11:16:32;4.90;;;4.50;;
7213;SDS011;3648;50.614;13.830;2023-09-18T11:19:10;4.90;;;4.40;;
7213;SDS011;3648;50.614;13.830;2023-09-18T11:21:39;4.40;;;4.00;;
7213;SDS011;3648;50.614;13.830;2023-09-18T11:24:06;4.60;;;4.17;;
7213;SDS011;3648;50.614;13.830;2023-09-18T11:26:36;5.27;;;4.30;;
7213;SDS011;3648;50.614;13.830;2023-09-18T11:29:07;4.57;;;3.90;;
7213;SDS011;3648;50.614;13.830;2023-09-18T11:31:42;4.27;;;3.87;;
7213;SDS011;3648;50.614;13.830;2023-09-18T11:34:14;5.60;;;5.00;;
7213;SDS011;3648;50.614;13.830;2023-09-18T11:36:42;4.90;;;4.50;;
7213;SDS011;3648;50.614;13.830;2023-09-18T11:39:09;6.13;;;4.87;;
7213;SDS011;3648;50.614;13.830;2023-09-18T11:41:38;4.57;;;4.17;;
7213;SDS011;3648;50.614;13.830;2023-09-18T11:47:06;4.20;;;3.80;;
7213;SDS011;3648;50.614;13.830;2023-09-18T11:49:37;3.90;;;3.50;;
7213;SDS011;3648;50.614;13.830;2023-09-18T11:52:08;4.47;;;4.07;;
7213;SDS011;3648;50.614;13.830;2023-09-18T11:54:36;4.50;;;4.10;;
7213;SDS011;3648;50.614;13.830;2023-09-18T11:57:06;5.10;;;4.00;;
7213;SDS011;3648;50.614;13.830;2023-09-18T11:59:36;5.80;;;4.27;;
7213;SDS011;3648;50.614;13.830;2023-09-18T12:02:04;4.00;;;3.70;;
7213;SDS011;3648;50.614;13.830;2023-09-18T12:04:34;5.27;;;4.43;;
7213;SDS011;3648;50.614;13.830;2023-09-18T12:07:02;4.53;;;4.10;;
7213;SDS011;3648;50.614;13.830;2023-09-18T12:09:30;4.37;;;3.90;;
7213;SDS011;3648;50.614;13.830;2023-09-18T12:12:00;4.97;;;3.87;;
7213;SDS011;3648;50.614;13.830;2023-09-18T12:14:30;4.20;;;3.40;;
7213;SDS011;3648;50.614;13.830;2023-09-18T12:17:00;5.33;;;3.70;;
7213;SDS011;3648;50.614;13.830;2023-09-18T12:19:29;6.70;;;4.07;;
7213;SDS011;3648;50.614;13.830;2023-09-18T12:21:56;6.33;;;3.83;;
7213;SDS011;3648;50.614;13.830;2023-09-18T12:24:23;4.33;;;3.93;;
7213;SDS011;3648;50.614;13.830;2023-09-18T12:26:51;4.43;;;3.67;;
7213;SDS011;3648;50.614;13.830;2023-09-18T12:29:20;3.87;;;3.57;;
7213;SDS011;3648;50.614;13.830;2023-09-18T12:31:47;4.50;;;4.10;;
7213;SDS011;3648;50.614;13.830;2023-09-18T12:34:17;4.57;;;4.17;;
7213;SDS011;3648;50.614;13.830;2023-09-18T12:36:46;3.80;;;3.50;;
7213;SDS011;3648;50.614;13.830;2023-09-18T12:39:14;4.30;;;3.90;;
7213;SDS011;3648;50.614;13.830;2023-09-18T12:41:41;4.47;;;4.10;;
7213;SDS011;3648;50.614;13.830;2023-09-18T12:44:10;4.57;;;3.77;;
7213;SDS011;3648;50.614;13.830;2023-09-18T12:46:39;4.03;;;3.73;;
7213;SDS011;3648;50.614;13.830;2023-09-18T12:49:21;4.13;;;3.73;;
7213;SDS011;3648;50.614;13.830;2023-09-18T12:51:56;4.30;;;3.60;;
7213;SDS011;3648;50.614;13.830;2023-09-18T12:54:36;6.53;;;3.70;;
7213;SDS011;3648;50.614;13.830;2023-09-18T12:57:04;3.60;;;3.30;;
7213;SDS011;3648;50.614;13.830;2023-09-18T12:59:32;3.93;;;3.33;;
7213;SDS011;3648;50.614;13.830;2023-09-18T13:02:00;3.57;;;3.27;;
7213;SDS011;3648;50.614;13.830;2023-09-18T13:04:30;4.30;;;3.90;;
7213;SDS011;3648;50.614;13.830;2023-09-18T13:07:09;5.80;;;4.23;;
7213;SDS011;3648;50.614;13.830;2023-09-18T13:09:37;5.27;;;3.53;;
7213;SDS011;3648;50.614;13.830;2023-09-18T13:12:04;3.77;;;3.40;;
7213;SDS011;3648;50.614;13.830;2023-09-18T13:17:23;4.83;;;3.53;;
7213;SDS011;3648;50.614;13.830;2023-09-18T13:19:52;6.80;;;3.77;;
7213;SDS011;3648;50.614;13.830;2023-09-18T13:22:23;4.53;;;3.77;;
7213;SDS011;3648;50.614;13.830;2023-09-18T13:24:54;10.30;;;4.10;;
7213;SDS011;3648;50.614;13.830;2023-09-18T13:27:22;5.00;;;3.87;;
7213;SDS011;3648;50.614;13.830;2023-09-18T13:29:51;3.87;;;3.50;;
7213;SDS011;3648;50.614;13.830;2023-09-18T13:32:18;5.47;;;3.73;;
7213;SDS011;3648;50.614;13.830;2023-09-18T13:34:45;4.10;;;3.70;;
7213;SDS011;3648;50.614;13.830;2023-09-18T13:37:14;5.00;;;3.90;;
7213;SDS011;3648;50.614;13.830;2023-09-18T13:39:45;3.73;;;3.43;;
7213;SDS011;3648;50.614;13.830;2023-09-18T13:42:12;7.57;;;4.37;;
7213;SDS011;3648;50.614;13.830;2023-09-18T13:44:39;4.10;;;3.80;;
7213;SDS011;3648;50.614;13.830;2023-09-18T13:47:06;4.33;;;3.93;;
7213;SDS011;3648;50.614;13.830;2023-09-18T13:49:33;5.27;;;3.53;;
7213;SDS011;3648;50.614;13.830;2023-09-18T13:52:00;4.63;;;4.07;;
7213;SDS011;3648;50.614;13.830;2023-09-18T13:54:30;6.20;;;4.07;;
7213;SDS011;3648;50.614;13.830;2023-09-18T13:56:57;5.70;;;3.83;;
7213;SDS011;3648;50.614;13.830;2023-09-18T13:59:24;6.40;;;5.80;;
7213;SDS011;3648;50.614;13.830;2023-09-18T14:01:51;7.37;;;4.60;;
7213;SDS011;3648;50.614;13.830;2023-09-18T14:04:18;6.23;;;4.27;;
7213;SDS011;3648;50.614;13.830;2023-09-18T14:06:47;6.90;;;5.03;;
7213;SDS011;3648;50.614;13.830;2023-09-18T14:09:14;5.00;;;4.30;;
7213;SDS011;3648;50.614;13.830;2023-09-18T14:11:43;4.93;;;4.43;;
7213;SDS011;3648;50.614;13.830;2023-09-18T14:14:10;8.30;;;6.50;;
7213;SDS011;3648;50.614;13.830;2023-09-18T14:16:37;6.13;;;5.27;;
7213;SDS011;3648;50.614;13.830;2023-09-18T14:19:04;5.23;;;4.70;;
7213;SDS011;3648;50.614;13.830;2023-09-18T14:21:31;7.30;;;4.03;;
7213;SDS011;3648;50.614;13.830;2023-09-18T14:23:59;5.00;;;4.50;;
7213;SDS011;3648;50.614;13.830;2023-09-18T14:26:25;7.77;;;4.30;;
7213;SDS011;3648;50.614;13.830;2023-09-18T14:28:54;4.93;;;4.10;;
7213;SDS011;3648;50.614;13.830;2023-09-18T14:31:21;5.30;;;4.07;;
7213;SDS011;3648;50.614;13.830;2023-09-18T14:33:48;5.60;;;3.93;;
7213;SDS011;3648;50.614;13.830;2023-09-18T14:36:15;10.73;;;4.33;;
7213;SDS011;3648;50.614;13.830;2023-09-18T14:38:42;7.53;;;4.20;;
7213;SDS011;3648;50.614;13.830;2023-09-18T14:41:10;6.57;;;3.90;;
7213;SDS011;3648;50.614;13.830;2023-09-18T14:43:38;4.40;;;3.70;;
7213;SDS011;3648;50.614;13.830;2023-09-18T14:46:06;6.43;;;4.80;;
7213;SDS011;3648;50.614;13.830;2023-09-18T14:48:33;6.87;;;4.13;;
7213;SDS011;3648;50.614;13.830;2023-09-18T14:51:00;5.43;;;3.67;;
7213;SDS011;3648;50.614;13.830;2023-09-18T14:53:28;4.20;;;3.70;;
7213;SDS011;3648;50.614;13.830;2023-09-18T14:55:55;5.53;;;3.83;;
7213;SDS011;3648;50.614;13.830;2023-09-18T14:58:23;5.43;;;3.97;;
7213;SDS011;3648;50.614;13.830;2023-09-18T15:00:50;5.53;;;4.33;;
7213;SDS011;3648;50.614;13.830;2023-09-18T15:03:18;6.13;;;4.10;;
7213;SDS011;3648;50.614;13.830;2023-09-18T15:05:45;6.00;;;4.10;;
7213;SDS011;3648;50.614;13.830;2023-09-18T15:08:12;4.10;;;3.70;;
7213;SDS011;3648;50.614;13.830;2023-09-18T15:10:40;5.67;;;4.30;;
7213;SDS011;3648;50.614;13.830;2023-09-18T15:13:07;4.60;;;3.87;;